Time;durP1;ratioP1;P1;durP2;ratioP2;P2;SDS_P1;SDS_P2;PMS_P1;PMS_P2;Temp;Humidity;BMP_temperature;BMP_pressure;BME280_temperature;BME280_humidity;BME280_pressure;Samples;Min_cycle;Max_cycle;Signal;HPM_P1;HPM_P2
2021/08/10 00:00:45;;;;;;;0.00;0.00;;;15.30;99.90;;;;;;5035493;28;20128;-81
2021/08/10 00:03:32;;;;;;;0.00;0.00;;;15.20;99.90;;;;;;5036409;28;20049;-82
2021/08/10 00:06:19;;;;;;;0.00;0.00;;;15.30;99.90;;;;;;5027617;28;20063;-82
2021/08/10 00:09:06;;;;;;;0.00;0.00;;;15.10;99.90;;;;;;5034496;28;20045;-82
2021/08/10 00:11:57;;;;;;;0.00;0.00;;;15.10;99.90;;;;;;5036884;28;20064;-81
2021/08/10 00:14:44;;;;;;;0.00;0.00;;;15.10;99.90;;;;;;5038416;28;20045;-81
2021/08/10 00:17:31;;;;;;;0.00;0.00;;;15.10;99.90;;;;;;5050309;28;20045;-83
2021/08/10 00:20:18;;;;;;;0.00;0.00;;;;;;;;;;5035400;28;20055;-82
2021/08/10 00:23:06;;;;;;;0.00;0.00;;;15.10;99.90;;;;;;5037960;28;20232;-82
2021/08/10 00:25:53;;;;;;;0.00;0.00;;;15.00;99.90;;;;;;5035168;28;20123;-83
2021/08/10 00:28:41;;;;;;;0.00;0.00;;;15.00;99.90;;;;;;5039791;28;20044;-82
2021/08/10 00:31:28;;;;;;;0.00;0.00;;;15.00;99.90;;;;;;5036919;28;20053;-82
2021/08/10 00:34:16;;;;;;;0.00;0.00;;;15.00;99.90;;;;;;5033584;28;20056;-83
2021/08/10 00:37:04;;;;;;;0.00;0.00;;;14.90;99.90;;;;;;5043636;28;20040;-82
2021/08/10 00:39:51;;;;;;;0.00;0.00;;;;;;;;;;5031300;28;20427;-81
2021/08/10 00:42:38;;;;;;;0.00;0.00;;;14.90;99.90;;;;;;5045745;28;20571;-83
2021/08/10 00:45:27;;;;;;;0.00;0.00;;;14.90;99.90;;;;;;5034581;28;20136;-82
2021/08/10 00:48:16;;;;;;;0.00;0.00;;;14.90;99.90;;;;;;5036089;28;20125;-83
2021/08/10 00:51:05;;;;;;;0.00;0.00;;;14.90;99.90;;;;;;5032457;28;20045;-82
2021/08/10 00:53:53;;;;;;;0.00;0.00;;;14.80;99.90;;;;;;5033907;28;20416;-80
2021/08/10 00:56:40;;;;;;;0.00;0.00;;;14.90;99.90;;;;;;5035648;28;20049;-82
2021/08/10 00:59:27;;;;;;;0.00;0.00;;;14.80;99.90;;;;;;5027847;28;20055;-84
2021/08/10 01:02:16;;;;;;;0.00;0.00;;;14.80;99.90;;;;;;5035906;28;20465;-83
2021/08/10 01:05:04;;;;;;;0.00;0.00;;;14.80;99.90;;;;;;5037265;28;20130;-82
2021/08/10 01:07:57;;;;;;;0.00;0.00;;;14.80;99.90;;;;;;5034455;28;20118;-83
2021/08/10 01:10:51;;;;;;;0.00;0.00;;;14.70;99.90;;;;;;5028517;28;20424;-82
2021/08/10 01:13:45;;;;;;;0.00;0.00;;;14.80;99.90;;;;;;5035286;28;20049;-80
2021/08/10 01:16:40;;;;;;;0.00;0.00;;;14.80;99.90;;;;;;5039393;28;20152;-82
2021/08/10 01:19:46;;;;;;;0.00;0.00;;;14.80;99.90;;;;;;5028228;28;20045;-81
2021/08/10 01:22:36;;;;;;;0.00;0.00;;;14.80;99.90;;;;;;5049758;28;20037;-82
2021/08/10 01:25:33;;;;;;;0.00;0.00;;;14.80;99.90;;;;;;5034638;28;20119;-83
2021/08/10 01:28:41;;;;;;;0.00;0.00;;;14.80;99.90;;;;;;5030450;28;20048;-81
2021/08/10 01:31:33;;;;;;;0.00;0.00;;;14.90;99.90;;;;;;5033478;28;20053;-82
2021/08/10 01:34:25;;;;;;;0.00;0.00;;;14.90;99.90;;;;;;5037059;28;20068;-82
2021/08/10 01:37:17;;;;;;;0.00;0.00;;;14.90;99.90;;;;;;5051959;28;20123;-83
2021/08/10 01:40:09;;;;;;;0.00;0.00;;;14.90;99.90;;;;;;5032034;28;20055;-82
2021/08/10 01:43:02;;;;;;;0.00;0.00;;;14.90;99.90;;;;;;5033134;28;20071;-82
2021/08/10 01:45:50;;;;;;;0.00;0.00;;;15.00;99.90;;;;;;5031286;28;20175;-82
2021/08/10 01:48:39;;;;;;;0.00;0.00;;;15.00;99.90;;;;;;5028757;28;20056;-82
2021/08/10 01:51:28;;;;;;;0.00;0.00;;;15.00;99.90;;;;;;5045044;28;20065;-82
2021/08/10 01:54:17;;;;;;;0.00;0.00;;;15.00;99.90;;;;;;5035896;28;20045;-83
2021/08/10 01:57:04;;;;;;;0.00;0.00;;;15.00;99.90;;;;;;5037025;28;20043;-82
2021/08/10 01:59:54;;;;;;;0.00;0.00;;;15.00;99.90;;;;;;5039435;28;20040;-82
2021/08/10 02:02:43;;;;;;;0.00;0.00;;;15.10;99.90;;;;;;5056055;28;20387;-81
2021/08/10 02:05:32;;;;;;;0.00;0.00;;;15.10;99.90;;;;;;5036524;28;20041;-82
2021/08/10 02:08:21;;;;;;;0.00;0.00;;;15.20;99.90;;;;;;5035288;28;20053;-82
2021/08/10 02:11:10;;;;;;;0.00;0.00;;;15.20;99.90;;;;;;5041497;28;20049;-81
2021/08/10 02:13:59;;;;;;;0.00;0.00;;;15.20;99.90;;;;;;5038551;28;20047;-82
2021/08/10 02:16:46;;;;;;;0.00;0.00;;;15.30;99.90;;;;;;5037073;28;20040;-83
2021/08/10 02:19:34;;;;;;;0.00;0.00;;;15.20;99.90;;;;;;5038473;28;20075;-82
2021/08/10 02:22:23;;;;;;;0.00;0.00;;;15.20;99.90;;;;;;5036994;28;20055;-83
2021/08/10 02:25:13;;;;;;;0.00;0.00;;;15.20;99.90;;;;;;5037335;28;20047;-81
2021/08/10 02:28:02;;;;;;;0.00;0.00;;;15.20;99.90;;;;;;5038146;28;20045;-82
2021/08/10 02:30:53;;;;;;;0.00;0.00;;;15.20;99.90;;;;;;5038290;28;20045;-82
2021/08/10 02:33:41;;;;;;;0.00;0.00;;;15.30;99.90;;;;;;5041962;28;20037;-83
2021/08/10 02:36:30;;;;;;;0.00;0.00;;;15.40;99.90;;;;;;5037869;28;20045;-83
2021/08/10 02:39:20;;;;;;;0.00;0.00;;;15.40;99.90;;;;;;5036705;28;20554;-83
2021/08/10 02:42:10;;;;;;;0.00;0.00;;;15.50;99.90;;;;;;5039542;28;20420;-83
2021/08/10 02:45:01;;;;;;;0.00;0.00;;;15.50;99.90;;;;;;5035703;28;20094;-83
2021/08/10 02:47:49;;;;;;;0.00;0.00;;;15.50;99.90;;;;;;5035303;28;20040;-83
2021/08/10 02:50:36;;;;;;;0.00;0.00;;;15.60;99.90;;;;;;5036418;28;20043;-83
2021/08/10 02:53:24;;;;;;;0.00;0.00;;;15.50;99.90;;;;;;5037187;28;20045;-83
2021/08/10 02:56:17;;;;;;;0.00;0.00;;;15.50;99.90;;;;;;5038733;28;20037;-83
2021/08/10 02:59:14;;;;;;;0.00;0.00;;;15.50;99.90;;;;;;5049668;28;20041;-81
2021/08/10 03:02:08;;;;;;;0.00;0.00;;;15.50;99.90;;;;;;5036692;28;20159;-81
2021/08/10 03:04:58;;;;;;;0.00;0.00;;;15.60;99.90;;;;;;5032494;28;20052;-82
2021/08/10 03:07:49;;;;;;;;;;;16.10;99.90;;;;;;5032389;28;20049;-82
2021/08/10 03:10:37;;;;;;;0.00;0.00;;;15.60;99.90;;;;;;5037403;28;19920;-83
2021/08/10 03:13:30;;;;;;;0.00;0.00;;;15.50;99.90;;;;;;5047967;28;20519;-81
2021/08/10 03:16:19;;;;;;;0.00;0.00;;;15.50;99.90;;;;;;5037808;28;20167;-84
2021/08/10 03:19:09;;;;;;;0.00;0.00;;;15.40;99.90;;;;;;5036891;28;20125;-84
2021/08/10 03:21:58;;;;;;;0.00;0.00;;;15.40;99.90;;;;;;5036974;28;20501;-82
2021/08/10 03:24:47;;;;;;;0.00;0.00;;;15.40;99.90;;;;;;5036413;28;20048;-83
2021/08/10 03:27:34;;;;;;;0.00;0.00;;;15.50;99.90;;;;;;5027427;28;20045;-82
2021/08/10 03:30:24;;;;;;;0.00;0.00;;;15.40;99.90;;;;;;5034235;28;20164;-82
2021/08/10 03:33:12;;;;;;;0.00;0.00;;;15.30;99.90;;;;;;5035474;28;20052;-82
2021/08/10 03:35:59;;;;;;;0.00;0.00;;;15.40;99.90;;;;;;5034376;28;20052;-83
2021/08/10 03:38:47;;;;;;;0.00;0.00;;;15.40;99.90;;;;;;5051621;28;20045;-83
2021/08/10 03:41:34;;;;;;;0.00;0.00;;;15.40;99.90;;;;;;5043768;28;20119;-83
2021/08/10 03:44:22;;;;;;;0.00;0.00;;;15.40;99.90;;;;;;5037452;28;20045;-83
2021/08/10 03:47:11;;;;;;;0.00;0.00;;;15.40;99.90;;;;;;5032658;28;20052;-83
2021/08/10 03:49:59;;;;;;;0.00;0.00;;;;;;;;;;5035314;28;20116;-81
2021/08/10 03:52:48;;;;;;;0.00;0.00;;;15.50;99.90;;;;;;5034775;28;20118;-83
2021/08/10 03:55:36;;;;;;;0.00;0.00;;;15.40;99.90;;;;;;5033507;28;20045;-83
2021/08/10 03:58:25;;;;;;;0.00;0.00;;;15.40;99.90;;;;;;5037992;28;20041;-83
2021/08/10 04:01:12;;;;;;;0.00;0.00;;;15.30;99.90;;;;;;5033986;28;20412;-84
2021/08/10 04:04:02;;;;;;;0.00;0.00;;;15.30;99.90;;;;;;5032905;28;20335;-82
2021/08/10 04:06:49;;;;;;;0.00;0.00;;;15.20;99.90;;;;;;5032939;28;20072;-83
2021/08/10 04:09:37;;;;;;;0.00;0.00;;;15.20;99.90;;;;;;5037041;28;20115;-82
2021/08/10 04:12:25;;;;;;;0.00;0.00;;;15.10;99.90;;;;;;5032349;28;20041;-82
2021/08/10 04:15:13;;;;;;;0.00;0.00;;;15.10;99.90;;;;;;5031185;28;20128;-82
2021/08/10 04:18:02;;;;;;;0.00;0.00;;;15.20;99.90;;;;;;5038235;28;20056;-83
2021/08/10 04:20:52;;;;;;;0.00;0.00;;;15.20;99.90;;;;;;5036417;28;20055;-83
2021/08/10 04:23:39;;;;;;;0.00;0.00;;;15.20;99.90;;;;;;5034382;28;20108;-83
2021/08/10 04:26:26;;;;;;;0.00;0.00;;;15.30;99.90;;;;;;5036640;28;20508;-83
2021/08/10 04:29:13;;;;;;;0.00;0.00;;;15.30;99.90;;;;;;5035209;28;20057;-83
2021/08/10 04:32:00;;;;;;;0.00;0.00;;;15.20;99.90;;;;;;5048298;28;20053;-83
2021/08/10 04:34:47;;;;;;;0.00;0.00;;;15.20;99.90;;;;;;5034928;28;20048;-83
2021/08/10 04:37:36;;;;;;;0.00;0.00;;;15.40;99.90;;;;;;5044309;28;20040;-83
2021/08/10 04:40:27;;;;;;;0.00;0.00;;;15.40;99.90;;;;;;5037263;28;20144;-82
2021/08/10 04:43:14;;;;;;;0.00;0.00;;;15.40;99.90;;;;;;5037408;28;20420;-82
2021/08/10 04:46:01;;;;;;;0.00;0.00;;;15.40;99.90;;;;;;5038040;28;20118;-83
2021/08/10 04:48:48;;;;;;;0.00;0.00;;;15.30;99.90;;;;;;5041457;28;20052;-83
2021/08/10 04:51:35;;;;;;;0.00;0.00;;;15.40;99.90;;;;;;5037036;28;20127;-83
2021/08/10 04:54:24;;;;;;;0.00;0.00;;;15.40;99.90;;;;;;5035705;28;20045;-83
2021/08/10 04:57:11;;;;;;;0.00;0.00;;;15.50;99.90;;;;;;5038353;28;20436;-83
2021/08/10 04:59:58;;;;;;;0.00;0.00;;;15.50;99.90;;;;;;5034208;28;20059;-84
2021/08/10 05:02:45;;;;;;;0.00;0.00;;;15.50;99.90;;;;;;5035375;28;20493;-83
2021/08/10 05:05:33;;;;;;;0.00;0.00;;;15.60;99.90;;;;;;5036263;28;20407;-83
2021/08/10 05:08:20;;;;;;;0.00;0.00;;;15.60;99.90;;;;;;5042352;28;20049;-83
2021/08/10 05:11:10;;;;;;;0.00;0.00;;;15.60;99.90;;;;;;5034640;28;20051;-84
2021/08/10 05:13:57;;;;;;;0.00;0.00;;;15.60;99.90;;;;;;5034911;28;20053;-83
2021/08/10 05:16:44;;;;;;;0.00;0.00;;;17.20;99.90;;;;;;5042211;28;20112;-81
2021/08/10 05:19:32;;;;;;;0.00;0.00;;;15.60;99.90;;;;;;5036012;28;20126;-83
2021/08/10 05:22:20;;;;;;;0.00;0.00;;;15.70;99.90;;;;;;5039273;28;20045;-81
2021/08/10 05:25:07;;;;;;;0.00;0.00;;;15.70;99.90;;;;;;5029757;28;20120;-81
2021/08/10 05:27:56;;;;;;;0.00;0.00;;;15.70;99.90;;;;;;5035681;28;20049;-84
2021/08/10 05:30:43;;;;;;;0.00;0.00;;;15.70;99.90;;;;;;5032607;28;20040;-84
2021/08/10 05:33:30;;;;;;;0.00;0.00;;;15.70;99.90;;;;;;5035619;28;20441;-83
2021/08/10 05:36:19;;;;;;;0.00;0.00;;;15.70;99.90;;;;;;5050128;28;20150;-83
2021/08/10 05:39:07;;;;;;;0.00;0.00;;;15.70;99.90;;;;;;5034983;28;21038;-84
2021/08/10 05:41:54;;;;;;;0.00;0.00;;;15.80;99.90;;;;;;5036535;28;20048;-83
2021/08/10 05:44:42;;;;;;;0.00;0.00;;;15.80;99.90;;;;;;5038249;28;20090;-83
2021/08/10 05:47:29;;;;;;;0.00;0.00;;;15.80;99.90;;;;;;5030259;28;20042;-83
2021/08/10 05:50:17;;;;;;;0.00;0.00;;;15.80;99.90;;;;;;5033769;28;20127;-83
2021/08/10 05:53:04;;;;;;;0.00;0.00;;;15.80;99.90;;;;;;5030357;28;20062;-83
2021/08/10 05:55:51;;;;;;;0.00;0.00;;;15.80;99.90;;;;;;5028544;28;20044;-83
2021/08/10 05:58:38;;;;;;;0.00;0.00;;;15.80;99.90;;;;;;5029535;28;20974;-84
2021/08/10 06:01:27;;;;;;;0.00;0.00;;;15.80;99.90;;;;;;5032802;28;20124;-84
2021/08/10 06:04:14;;;;;;;0.00;0.00;;;15.90;99.90;;;;;;5033082;28;20053;-83
2021/08/10 06:07:03;;;;;;;0.00;0.00;;;15.90;99.90;;;;;;5035441;28;20041;-83
2021/08/10 06:09:50;;;;;;;0.00;0.00;;;15.90;99.90;;;;;;5034587;28;20504;-84
2021/08/10 06:12:37;;;;;;;0.00;0.00;;;18.20;99.90;;;;;;5046962;28;20041;-83
2021/08/10 06:15:25;;;;;;;0.00;0.00;;;16.00;99.90;;;;;;5036857;28;20037;-84
2021/08/10 06:18:13;;;;;;;0.00;0.00;;;15.90;99.90;;;;;;5036371;28;20087;-83
2021/08/10 06:21:00;;;;;;;0.00;0.00;;;15.90;99.90;;;;;;5029114;28;20137;-83
2021/08/10 06:23:47;;;;;;;0.00;0.00;;;15.90;99.90;;;;;;5027307;28;20041;-83
2021/08/10 06:26:35;;;;;;;0.00;0.00;;;16.00;99.90;;;;;;5039635;28;20063;-83
2021/08/10 06:29:22;;;;;;;0.00;0.00;;;16.00;99.90;;;;;;5031694;28;20045;-84
2021/08/10 06:32:09;;;;;;;0.00;0.00;;;16.00;99.90;;;;;;5038668;28;20144;-83
2021/08/10 06:34:57;;;;;;;0.00;0.00;;;16.10;99.90;;;;;;5032432;28;20431;-84
2021/08/10 06:37:45;;;;;;;0.00;0.00;;;16.00;99.90;;;;;;5031602;28;20102;-83
2021/08/10 06:40:32;;;;;;;0.00;0.00;;;16.00;99.90;;;;;;5030938;28;20055;-80
2021/08/10 06:43:19;;;;;;;0.00;0.00;;;16.10;99.90;;;;;;5037189;28;20307;-82
2021/08/10 06:46:06;;;;;;;0.00;0.00;;;16.00;99.90;;;;;;5036063;28;20045;-84
2021/08/10 06:48:53;;;;;;;0.00;0.00;;;16.00;99.90;;;;;;5036506;28;20090;-84
2021/08/10 06:51:42;;;;;;;0.00;0.00;;;15.90;99.90;;;;;;5046727;28;20051;-83
2021/08/10 06:54:29;;;;;;;0.00;0.00;;;16.00;99.90;;;;;;5032757;28;20049;-83
2021/08/10 06:57:16;;;;;;;0.00;0.00;;;16.10;99.90;;;;;;5039625;28;20067;-81
2021/08/10 07:00:04;;;;;;;0.00;0.00;;;16.20;99.90;;;;;;5042509;28;20048;-83
2021/08/10 07:02:51;;;;;;;0.00;0.00;;;16.40;99.90;;;;;;5039520;28;20123;-83
2021/08/10 07:05:39;;;;;;;0.00;0.00;;;16.60;99.90;;;;;;5028722;28;20052;-83
2021/08/10 07:08:28;;;;;;;0.00;0.00;;;16.80;99.90;;;;;;5038976;28;20052;-81
2021/08/10 07:11:15;;;;;;;0.00;0.00;;;16.50;99.90;;;;;;5038851;28;20138;-83
2021/08/10 07:14:02;;;;;;;0.00;0.00;;;16.40;99.90;;;;;;5037143;28;20128;-84
2021/08/10 07:16:49;;;;;;;0.00;0.00;;;16.40;99.90;;;;;;5032676;28;20037;-83
2021/08/10 07:19:36;;;;;;;0.00;0.00;;;16.50;99.90;;;;;;5035475;28;20045;-83
2021/08/10 07:22:24;;;;;;;0.00;0.00;;;16.50;99.90;;;;;;5035311;28;20047;-83
2021/08/10 07:25:22;;;;;;;0.00;0.00;;;16.60;99.90;;;;;;5040706;28;20116;-84
2021/08/10 07:28:09;;;;;;;0.00;0.00;;;16.60;99.90;;;;;;5032642;28;20126;-83
2021/08/10 07:30:56;;;;;;;0.00;0.00;;;16.60;99.90;;;;;;5035380;28;20155;-82
2021/08/10 07:33:43;;;;;;;0.00;0.00;;;16.80;99.90;;;;;;5040218;28;20048;-83
2021/08/10 07:36:30;;;;;;;0.00;0.00;;;16.80;99.90;;;;;;5038907;28;20146;-83
2021/08/10 07:39:17;;;;;;;0.00;0.00;;;16.80;99.90;;;;;;5031136;28;20102;-83
2021/08/10 07:42:06;;;;;;;0.00;0.00;;;16.80;99.90;;;;;;5035173;28;20123;-83
2021/08/10 07:44:53;;;;;;;0.00;0.00;;;16.70;99.90;;;;;;5031450;28;20124;-83
2021/08/10 07:47:40;;;;;;;0.00;0.00;;;17.00;99.90;;;;;;5047539;28;20122;-84
2021/08/10 07:50:27;;;;;;;0.00;0.00;;;17.00;99.90;;;;;;5027437;28;20052;-83
2021/08/10 07:53:15;;;;;;;0.00;0.00;;;17.10;99.90;;;;;;5028142;28;20135;-83
2021/08/10 07:56:02;;;;;;;0.00;0.00;;;17.10;99.90;;;;;;5031024;28;20135;-83
2021/08/10 07:58:51;;;;;;;0.00;0.00;;;17.20;99.90;;;;;;5036821;28;20059;-81
2021/08/10 08:01:38;;;;;;;0.00;0.00;;;17.20;99.90;;;;;;5038339;28;20500;-84
2021/08/10 08:04:25;;;;;;;0.00;0.00;;;17.30;99.90;;;;;;5039748;28;20048;-85
2021/08/10 08:07:12;;;;;;;0.00;0.00;;;17.40;99.90;;;;;;5035535;28;20074;-83
2021/08/10 08:09:59;;;;;;;0.00;0.00;;;17.40;99.90;;;;;;5037895;28;20047;-84
2021/08/10 08:12:46;;;;;;;0.00;0.00;;;17.60;99.90;;;;;;5036410;28;20055;-84
2021/08/10 08:15:36;;;;;;;0.00;0.00;;;17.70;99.90;;;;;;5021267;28;20576;-81
2021/08/10 08:18:24;;;;;;;0.00;0.00;;;17.80;99.90;;;;;;5033241;28;20049;-84
2021/08/10 08:21:11;;;;;;;0.00;0.00;;;17.90;99.90;;;;;;5033126;28;20102;-84
2021/08/10 08:23:58;;;;;;;0.00;0.00;;;18.00;99.90;;;;;;5036763;28;20124;-84
2021/08/10 08:26:45;;;;;;;0.00;0.00;;;18.10;99.90;;;;;;5033789;28;20049;-82
2021/08/10 08:29:32;;;;;;;0.00;0.00;;;18.20;99.90;;;;;;5029438;28;20056;-82
2021/08/10 08:32:21;;;;;;;0.00;0.00;;;18.30;99.90;;;;;;5032911;28;20110;-81
2021/08/10 08:35:08;;;;;;;0.00;0.00;;;18.40;99.90;;;;;;5037102;28;20548;-83
2021/08/10 08:37:55;;;;;;;0.00;0.00;;;18.60;99.90;;;;;;5028965;28;20040;-82
2021/08/10 08:40:45;;;;;;;0.00;0.00;;;18.60;99.90;;;;;;5035080;28;20178;-84
2021/08/10 08:43:32;;;;;;;0.00;0.00;;;18.70;99.90;;;;;;5035862;28;20091;-83
2021/08/10 08:46:21;;;;;;;0.00;0.00;;;18.70;99.90;;;;;;5034977;28;20119;-83
2021/08/10 08:49:13;;;;;;;0.00;0.00;;;18.70;99.90;;;;;;5035106;28;20037;-84
2021/08/10 08:52:02;;;;;;;0.00;0.00;;;18.80;99.90;;;;;;5037474;28;20079;-83
2021/08/10 08:54:50;;;;;;;0.00;0.00;;;;;;;;;;5032900;28;20074;-80
2021/08/10 08:57:37;;;;;;;0.00;0.00;;;19.00;99.90;;;;;;5034332;28;20457;-83
2021/08/10 09:00:25;;;;;;;0.00;0.00;;;18.90;99.90;;;;;;5042527;28;20131;-82
2021/08/10 09:03:12;;;;;;;0.00;0.00;;;18.90;99.90;;;;;;5037955;28;20036;-82
2021/08/10 09:06:00;;;;;;;0.00;0.00;;;18.80;99.90;;;;;;5030903;28;20041;-83
2021/08/10 09:08:52;;;;;;;0.00;0.00;;;18.90;99.90;;;;;;5034031;28;20120;-84
2021/08/10 09:11:48;;;;;;;0.00;0.00;;;19.00;99.90;;;;;;5033869;28;20053;-83
2021/08/10 09:14:43;;;;;;;0.00;0.00;;;18.90;99.90;;;;;;5034357;28;20047;-80
2021/08/10 09:17:31;;;;;;;0.00;0.00;;;19.00;99.90;;;;;;5036513;28;20067;-84
2021/08/10 09:20:20;;;;;;;0.00;0.00;;;19.30;99.90;;;;;;5033508;28;20037;-82
2021/08/10 09:23:09;;;;;;;;;;;19.60;99.90;;;;;;5031300;28;20045;-84
2021/08/10 09:25:56;;;;;;;0.00;0.00;;;19.80;99.90;;;;;;5032359;28;19921;-83
2021/08/10 09:28:44;;;;;;;0.00;0.00;;;19.90;99.90;;;;;;5040838;28;20511;-84
2021/08/10 09:31:35;;;;;;;0.00;0.00;;;20.00;99.90;;;;;;5029985;28;20131;-84
2021/08/10 09:34:24;;;;;;;0.00;0.00;;;20.10;99.90;;;;;;5025906;28;20517;-85
2021/08/10 09:37:15;;;;;;;0.00;0.00;;;21.60;99.90;;;;;;5035074;28;20534;-84
2021/08/10 09:40:25;;;;;;;0.00;0.00;;;20.10;99.90;;;;;;5032302;28;20893;-84
2021/08/10 09:43:25;;;;;;;0.00;0.00;;;20.20;99.90;;;;;;5033636;28;20622;-83
2021/08/10 09:51:25;;;;;;;0.00;0.00;;;21.10;99.90;;;;;;5022026;28;20045;-87
2021/08/10 09:54:14;;;;;;;0.00;0.00;;;21.70;99.90;;;;;;5027740;28;20128;-87
2021/08/10 09:57:12;;;;;;;0.00;0.00;;;21.20;99.90;;;;;;5036553;28;20050;-87
2021/08/10 09:59:59;;;;;;;0.00;0.00;;;21.30;99.90;;;;;;5022570;28;20124;-87
2021/08/10 10:02:46;;;;;;;0.00;0.00;;;21.30;99.90;;;;;;5037448;28;20099;-84
2021/08/10 10:05:40;;;;;;;0.00;0.00;;;21.10;99.90;;;;;;5026553;28;20049;-87
2021/08/10 10:08:27;;;;;;;0.00;0.00;;;21.30;99.90;;;;;;5014047;28;20041;-87
2021/08/10 10:11:15;;;;;;;0.00;0.00;;;21.30;99.90;;;;;;5017722;28;20073;-87
2021/08/10 10:14:04;;;;;;;0.00;0.00;;;21.50;99.90;;;;;;5014622;28;20043;-87
2021/08/10 10:16:52;;;;;;;0.00;0.00;;;21.70;99.90;;;;;;5031244;28;20570;-86
2021/08/10 10:19:41;;;;;;;0.00;0.00;;;21.60;99.80;;;;;;5017519;28;20042;-88
2021/08/10 10:22:31;;;;;;;0.00;0.00;;;22.00;99.90;;;;;;5032029;28;20053;-88
2021/08/10 10:25:18;;;;;;;0.00;0.00;;;22.30;99.60;;;;;;5027679;28;20056;-88
2021/08/10 10:28:06;;;;;;;0.00;0.00;;;22.60;99.10;;;;;;5018344;28;20171;-88
2021/08/10 10:30:54;;;;;;;0.00;0.00;;;22.60;98.80;;;;;;5030874;28;20045;-87
2021/08/10 10:33:42;;;;;;;0.00;0.00;;;22.70;99.80;;;;;;5018541;28;20294;-89
2021/08/10 10:36:30;;;;;;;0.00;0.00;;;22.80;98.00;;;;;;5026574;28;20069;-88
2021/08/10 10:39:23;;;;;;;0.00;0.00;;;23.00;97.10;;;;;;5021474;28;20052;-88
2021/08/10 10:42:14;;;;;;;0.00;0.00;;;23.20;96.80;;;;;;5021718;28;20045;-89
2021/08/10 10:45:01;;;;;;;0.00;0.00;;;22.90;95.90;;;;;;5036854;28;20045;-88
2021/08/10 10:47:49;;;;;;;0.00;0.00;;;22.60;96.40;;;;;;5021916;28;20136;-88
2021/08/10 10:51:00;;;;;;;0.00;0.00;;;22.70;98.20;;;;;;5015824;28;20052;-88
2021/08/10 10:53:47;;;;;;;0.00;0.00;;;22.80;97.90;;;;;;5028679;28;20041;-89
2021/08/10 10:56:35;;;;;;;0.00;0.00;;;22.90;98.20;;;;;;5025303;28;20047;-89
2021/08/10 10:59:31;;;;;;;0.00;0.00;;;23.10;98.40;;;;;;5032089;28;20049;-89
2021/08/10 11:02:22;;;;;;;0.00;0.00;;;23.20;97.80;;;;;;5032245;28;20049;-87
2021/08/10 11:05:27;;;;;;;0.00;0.00;;;24.20;96.20;;;;;;5015266;28;20041;-89
2021/08/10 11:08:36;;;;;;;0.00;0.00;;;22.60;97.70;;;;;;5026895;28;20160;-87
2021/08/10 11:11:46;;;;;;;0.00;0.00;;;22.70;98.90;;;;;;5055769;28;20013;-88
2021/08/10 11:14:54;;;;;;;0.00;0.00;;;22.90;98.00;;;;;;5032746;28;20457;-89
2021/08/10 11:18:22;;;;;;;0.00;0.00;;;23.10;98.30;;;;;;5031681;28;20056;-88
2021/08/10 11:21:24;;;;;;;0.00;0.00;;;23.30;97.40;;;;;;5016835;28;20132;-89
2021/08/10 11:24:32;;;;;;;0.00;0.00;;;23.40;97.20;;;;;;5008137;28;20041;-88
2021/08/10 11:27:30;;;;;;;0.00;0.00;;;23.20;96.90;;;;;;5029241;28;20049;-88
2021/08/10 11:30:46;;;;;;;0.00;0.00;;;23.90;96.80;;;;;;5031287;28;20049;-89
2021/08/10 11:33:41;;;;;;;0.00;0.00;;;23.50;97.00;;;;;;5020800;28;20049;-89
2021/08/10 11:36:29;;;;;;;0.00;0.00;;;24.00;96.20;;;;;;5031128;28;20110;-88
2021/08/10 11:39:16;;;;;;;0.00;0.00;;;23.50;97.10;;;;;;5034448;28;20084;-88
2021/08/10 11:42:16;;;;;;;0.00;0.00;;;23.50;96.10;;;;;;5027370;28;20125;-89
2021/08/10 11:45:04;;;;;;;0.00;0.00;;;23.70;96.40;;;;;;5021359;28;20416;-87
2021/08/10 11:47:59;;;;;;;0.00;0.00;;;23.90;97.10;;;;;;5030901;28;20049;-88
2021/08/10 11:50:49;;;;;;;0.00;0.00;;;23.80;96.40;;;;;;5029340;28;20539;-87
2021/08/10 11:53:36;;;;;;;0.00;0.00;;;23.90;96.30;;;;;;5019863;28;20050;-88
2021/08/10 11:56:25;;;;;;;0.00;0.00;;;24.00;95.70;;;;;;5020189;28;20175;-90
2021/08/10 11:59:17;;;;;;;0.00;0.00;;;24.00;96.70;;;;;;5019861;28;20445;-87
2021/08/10 12:02:05;;;;;;;0.00;0.00;;;24.20;96.40;;;;;;5014435;28;20143;-90
2021/08/10 12:04:52;;;;;;;0.00;0.00;;;24.10;96.40;;;;;;5007871;28;20501;-88
2021/08/10 12:07:51;;;;;;;0.00;0.00;;;24.20;96.30;;;;;;5012097;28;20042;-90
2021/08/10 12:10:39;;;;;;;;;;;24.20;96.30;;;;;;5025821;28;20513;-90
2021/08/10 12:13:26;;;;;;;0.00;0.00;;;24.50;96.00;;;;;;5022332;28;19948;-89
2021/08/10 12:16:14;;;;;;;0.00;0.00;;;23.90;96.00;;;;;;5026043;28;20076;-88
2021/08/10 12:19:01;;;;;;;0.00;0.00;;;23.50;95.30;;;;;;5028044;28;20034;-87
2021/08/10 12:21:48;;;;;;;0.00;0.00;;;23.40;95.40;;;;;;5008575;28;21527;-88
2021/08/10 12:24:39;;;;;;;0.00;0.00;;;23.40;95.60;;;;;;5010242;28;20124;-87
2021/08/10 12:27:29;;;;;;;0.00;0.00;;;23.50;96.40;;;;;;5007950;28;20124;-88
2021/08/10 12:30:16;;;;;;;0.00;0.00;;;23.40;96.00;;;;;;5014519;28;20057;-88
2021/08/10 12:33:15;;;;;;;0.00;0.00;;;23.50;95.90;;;;;;5013689;28;20046;-86
2021/08/10 12:36:07;;;;;;;0.00;0.00;;;23.40;96.00;;;;;;5014899;28;20033;-86
2021/08/10 12:38:59;;;;;;;0.00;0.00;;;23.40;95.60;;;;;;5012420;28;20583;-87
2021/08/10 12:41:51;;;;;;;0.00;0.00;;;23.80;95.90;;;;;;5014268;28;20048;-86
2021/08/10 12:44:39;;;;;;;0.00;0.00;;;24.10;96.90;;;;;;5012310;28;20051;-88
2021/08/10 12:47:31;;;;;;;0.00;0.00;;;24.10;96.30;;;;;;5011646;28;20037;-87
2021/08/10 12:50:23;;;;;;;0.00;0.00;;;24.10;95.40;;;;;;5031729;28;20401;-85
2021/08/10 12:53:25;;;;;;;0.00;0.00;;;24.20;95.50;;;;;;5015228;28;20183;-87
2021/08/10 12:56:12;;;;;;;0.00;0.00;;;23.90;94.70;;;;;;5029315;28;20103;-86
2021/08/10 12:59:01;;;;;;;0.00;0.00;;;23.70;95.20;;;;;;5025717;28;20132;-87
2021/08/10 13:01:48;;;;;;;0.00;0.00;;;23.60;94.70;;;;;;5022584;28;20094;-88
2021/08/10 13:04:36;;;;;;;0.00;0.00;;;23.70;94.90;;;;;;5010978;28;20045;-86
2021/08/10 13:07:23;;;;;;;0.00;0.00;;;23.60;95.90;;;;;;5009576;28;20092;-88
2021/08/10 13:10:12;;;;;;;0.00;0.00;;;23.60;96.20;;;;;;5027410;28;20650;-87
2021/08/10 13:13:01;;;;;;;0.00;0.00;;;23.30;95.30;;;;;;5025477;28;20120;-88
2021/08/10 13:15:50;;;;;;;0.00;0.00;;;23.20;96.20;;;;;;5016042;28;20127;-88
2021/08/10 13:18:38;;;;;;;0.00;0.00;;;22.90;95.80;;;;;;5007464;28;20045;-88
2021/08/10 13:21:45;;;;;;;0.00;0.00;;;22.70;96.70;;;;;;5025931;28;20128;-87
2021/08/10 13:24:33;;;;;;;0.00;0.00;;;22.70;96.40;;;;;;5025860;28;20092;-87
2021/08/10 13:27:26;;;;;;;0.00;0.00;;;22.80;96.50;;;;;;5027101;28;20060;-88
2021/08/10 13:30:19;;;;;;;0.00;0.00;;;23.00;96.20;;;;;;5011850;28;20042;-87
2021/08/10 13:33:14;;;;;;;0.00;0.00;;;22.90;95.80;;;;;;5012852;28;20037;-87
2021/08/10 13:36:01;;;;;;;0.00;0.00;;;23.10;96.90;;;;;;5014764;28;20398;-88
2021/08/10 13:38:48;;;;;;;0.00;0.00;;;23.20;96.40;;;;;;5028902;28;20116;-88
2021/08/10 13:41:43;;;;;;;0.00;0.00;;;23.40;96.30;;;;;;5026724;28;20048;-88
2021/08/10 13:44:30;;;;;;;0.00;0.00;;;23.40;95.50;;;;;;5004552;28;20135;-86
2021/08/10 13:47:17;;;;;;;0.00;0.00;;;23.10;95.40;;;;;;5015759;28;20052;-87
2021/08/10 13:50:07;;;;;;;0.00;0.00;;;22.70;96.40;;;;;;5000849;28;20132;-88
2021/08/10 13:52:54;;;;;;;0.00;0.00;;;22.80;96.70;;;;;;5002466;28;20109;-87
2021/08/10 13:55:47;;;;;;;0.00;0.00;;;22.80;97.10;;;;;;5002631;28;20176;-86
2021/08/10 13:58:38;;;;;;;0.00;0.00;;;22.90;96.20;;;;;;5018966;28;20815;-88
2021/08/10 14:01:32;;;;;;;0.00;0.00;;;22.60;96.50;;;;;;5018221;28;20092;-89
2021/08/10 14:04:21;;;;;;;0.00;0.00;;;22.60;97.10;;;;;;5001977;28;20084;-88
2021/08/10 14:07:09;;;;;;;0.00;0.00;;;22.70;97.10;;;;;;5007621;28;20425;-89
2021/08/10 14:09:57;;;;;;;0.00;0.00;;;22.90;96.20;;;;;;5000686;28;20049;-87
2021/08/10 14:12:44;;;;;;;0.00;0.00;;;23.20;95.70;;;;;;5002441;28;20046;-87
2021/08/10 14:15:31;;;;;;;0.00;0.00;;;23.10;96.30;;;;;;5006033;28;20075;-87
2021/08/10 14:18:18;;;;;;;0.00;0.00;;;22.90;96.50;;;;;;5006469;28;20218;-87
2021/08/10 14:21:22;;;;;;;0.00;0.00;;;23.10;97.30;;;;;;5012315;28;20297;-88
2021/08/10 14:24:10;;;;;;;0.00;0.00;;;23.30;97.50;;;;;;5006957;28;20132;-88
2021/08/10 14:26:57;;;;;;;0.00;0.00;;;23.30;95.80;;;;;;5020914;28;20145;-88
2021/08/10 14:29:45;;;;;;;0.00;0.00;;;23.50;95.80;;;;;;5020827;28;20369;-88
2021/08/10 14:32:32;;;;;;;0.00;0.00;;;23.50;95.70;;;;;;5026127;28;20441;-89
2021/08/10 14:35:19;;;;;;;0.00;0.00;;;23.90;95.80;;;;;;5008440;28;20046;-87
2021/08/10 14:38:07;;;;;;;0.00;0.00;;;24.20;96.10;;;;;;5025305;28;20139;-88
2021/08/10 14:40:56;;;;;;;0.00;0.00;;;24.50;96.20;;;;;;5028900;28;20045;-87
2021/08/10 14:43:43;;;;;;;0.00;0.00;;;24.70;95.50;;;;;;5015425;28;20037;-89
2021/08/10 14:46:30;;;;;;;0.00;0.00;;;24.70;94.80;;;;;;5025483;28;20509;-87
2021/08/10 14:49:17;;;;;;;0.00;0.00;;;25.00;94.70;;;;;;5011919;28;20536;-89